Delta Virtual Airport Information Service

Luxembourg Findel Airport

ICAO: ELLX Country: Luxembourg
Latitude: 49.6233 Longitude: 6.20444
Latest Arrival : CLX7153 (B) (EHAM-ELLX) Latest Departure : DAC76 (ELLX-LPPT)


WX CaptureLIVE
Data provided by noaa.gov | Fetched at 01:44:05

METAR : ELLX 060620Z 26011KT 9999 FEW017 BKN032 12/08 Q1017 NOSIG

TAF : ELLX 060500Z 0606/0712 27010KT 9999 BKN018 BECMG 0608/0610 SCT025 TEMPO 0610/0616 28015G25KT FEW020TCU BKN025 BECMG 0618/0620 32005KT CAVOK


Runway Data for ELLX
Data provided by openaviationdata.com

Runway ID Mag Var Hdg Length Elevation Surface ILS Freq ILS Id ILS Slope
6 0 60° 13141 ft 1234 ft Asphalt 109.9 ILE 3
24 0 240° 13141 ft 1234 ft Asphalt 110.7 ILW 3

Luxembourg Findel Airport, Luxembourg
Use only for reference purposes



Not for navigational purposes.